Time;durP1;ratioP1;P1;durP2;ratioP2;P2;SDS_P1;SDS_P2;PMS_P1;PMS_P2;Temp;Humidity;BMP_temperature;BMP_pressure;BME280_temperature;BME280_humidity;BME280_pressure;Samples;Min_cycle;Max_cycle;Signal;HPM_P1;HPM_P2
2022/12/29 00:02:14;;;;;;;;;;;9.30;99.90;;;;;;5073913;28;20361;-62
2022/12/29 00:04:40;;;;;;;;;;;9.30;99.90;;;;;;5070373;28;19920;-62
2022/12/29 00:07:06;;;;;;;;;;;9.20;99.90;;;;;;5074283;28;20020;-62
2022/12/29 00:09:32;;;;;;;;;;;9.20;99.90;;;;;;5073775;28;19970;-62
2022/12/29 00:11:58;;;;;;;;;;;9.10;99.90;;;;;;5074152;28;19916;-62
2022/12/29 00:17:08;;;;;;;;;;;9.10;99.90;;;;;;5073115;28;19974;-62
2022/12/29 00:36:15;;;;;;;;;;;9.40;99.90;;;;;;5073828;28;19942;-62
2022/12/29 00:44:12;;;;;;;;;;;9.40;99.90;;;;;;5073818;28;19920;-62
2022/12/29 00:46:39;;;;;;;;;;;9.30;99.90;;;;;;5073056;28;19917;-62
2022/12/29 00:51:50;;;;;;;;;;;9.20;99.90;;;;;;5073509;28;20011;-62
2022/12/29 00:54:16;;;;;;;;;;;9.30;99.90;;;;;;5055423;28;20347;-62
2022/12/29 00:56:41;;;;;;;;;;;9.20;99.90;;;;;;5073057;28;19966;-62
2022/12/29 00:59:09;;;;;;;;;;;9.30;99.90;;;;;;5072788;28;19916;-62
2022/12/29 01:01:35;;;;;;;;;;;9.40;99.90;;;;;;5073320;28;20373;-62
2022/12/29 01:04:00;;;;;;;;;;;9.40;99.90;;;;;;5073189;28;19920;-62
2022/12/29 01:06:26;;;;;;;;;;;9.40;99.90;;;;;;5072867;28;19913;-62
2022/12/29 01:11:35;;;;;;;;;;;9.30;99.90;;;;;;5073622;28;19962;-62
2022/12/29 01:14:01;;;;;;;;;;;9.40;99.90;;;;;;5072640;28;19945;-62
2022/12/29 01:16:26;;;;;;;;;;;9.40;99.90;;;;;;5072942;28;19916;-62
2022/12/29 01:18:52;;;;;;;;;;;9.40;99.90;;;;;;5072043;28;20400;-62
2022/12/29 01:21:18;;;;;;;;;;;9.40;99.90;;;;;;5072947;28;19954;-62
2022/12/29 01:23:43;;;;;;;;;;;9.30;99.90;;;;;;5072796;28;19919;-62
2022/12/29 01:26:09;;;;;;;;;;;9.30;99.90;;;;;;5072699;28;20128;-62
2022/12/29 01:28:35;;;;;;;;;;;9.30;99.90;;;;;;5072486;28;19912;-62
2022/12/29 01:31:01;;;;;;;;;;;9.30;99.90;;;;;;5072318;28;20002;-62
2022/12/29 01:33:26;;;;;;;;;;;9.30;99.90;;;;;;5072441;28;20003;-62
2022/12/29 01:35:52;;;;;;;;;;;9.30;99.90;;;;;;5072047;28;19935;-62
2022/12/29 01:38:17;;;;;;;;;;;9.20;99.90;;;;;;5055774;28;19934;-62
2022/12/29 01:40:47;;;;;;;;;;;9.20;99.90;;;;;;5072492;28;19909;-62
2022/12/29 01:43:14;;;;;;;;;;;9.20;99.90;;;;;;5072540;28;19924;-62
2022/12/29 01:45:43;;;;;;;;;;;9.20;99.90;;;;;;5071859;28;19935;-62
2022/12/29 01:48:10;;;;;;;;;;;9.30;99.90;;;;;;5054234;28;20190;-62
2022/12/29 01:50:38;;;;;;;;;;;9.30;99.90;;;;;;5071810;28;19923;-62
2022/12/29 01:53:08;;;;;;;;;;;9.40;99.90;;;;;;5072268;28;19916;-62
2022/12/29 01:55:37;;;;;;;;;;;9.50;99.90;;;;;;5072539;28;19909;-62
2022/12/29 01:58:04;;;;;;;;;;;9.50;99.90;;;;;;5072041;28;19938;-62
2022/12/29 02:00:30;;;;;;;;;;;9.50;99.90;;;;;;5071890;28;19921;-62
2022/12/29 02:02:56;;;;;;;;;;;9.60;99.90;;;;;;5072307;28;19916;-62
2022/12/29 02:05:28;;;;;;;;;;;9.60;99.90;;;;;;5072116;28;19908;-62
2022/12/29 02:07:54;;;;;;;;;;;9.60;99.90;;;;;;5052195;28;20369;-62
2022/12/29 02:10:21;;;;;;;;;;;9.60;99.90;;;;;;5052079;28;19917;-62
2022/12/29 02:12:46;;;;;;;;;;;9.60;99.90;;;;;;5052293;28;19991;-62
2022/12/29 02:15:13;;;;;;;;;;;9.60;99.90;;;;;;5052219;28;19970;-62
2022/12/29 02:17:50;;;;;;;;;;;9.60;99.90;;;;;;5035211;28;20292;-62
2022/12/29 02:20:34;;;;;;;;;;;9.60;99.90;;;;;;5072083;28;19939;-62
2022/12/29 02:23:06;;;;;;;;;;;9.60;99.90;;;;;;5054146;28;20426;-62
2022/12/29 02:25:34;;;;;;;;;;;9.60;99.90;;;;;;5072169;28;19908;-62
2022/12/29 02:28:12;;;;;;;;;;;9.40;99.90;;;;;;5071940;28;19912;-62
2022/12/29 02:30:40;;;;;;;;;;;9.40;99.90;;;;;;5071983;28;19919;-62
2022/12/29 02:33:11;;;;;;;;;;;9.30;99.90;;;;;;5072030;28;19915;-62
2022/12/29 02:35:42;;;;;;;;;;;9.30;99.90;;;;;;5054060;28;19909;-62
2022/12/29 02:38:11;;;;;;;;;;;9.30;99.90;;;;;;5071857;28;20132;-62
2022/12/29 02:40:42;;;;;;;;;;;9.30;99.90;;;;;;5071680;28;19981;-62
2022/12/29 02:43:08;;;;;;;;;;;9.30;99.90;;;;;;5071783;28;19913;-62
2022/12/29 02:45:51;;;;;;;;;;;9.30;99.90;;;;;;5071535;28;20261;-62
2022/12/29 02:48:25;;;;;;;;;;;9.40;99.90;;;;;;5071746;28;19913;-62
2022/12/29 02:50:57;;;;;;;;;;;9.40;99.90;;;;;;5075957;28;19962;-62
2022/12/29 02:54:40;;;;;;;;;;;9.40;99.90;;;;;;5075456;28;19962;-62
2022/12/29 02:56:09;;;;;;;;;;;9.30;99.90;;;;;;5074959;28;19920;-62
2022/12/29 02:58:34;;;;;;;;;;;9.20;99.90;;;;;;5075398;28;20103;-62
2022/12/29 03:01:02;;;;;;;;;;;9.20;99.90;;;;;;5075829;28;19998;-62
2022/12/29 03:03:30;;;;;;;;;;;9.30;99.90;;;;;;5063062;28;19909;-62
2022/12/29 03:06:18;;;;;;;;;;;9.30;99.90;;;;;;5037956;28;19909;-62
2022/12/29 03:08:54;;;;;;;;;;;9.50;99.90;;;;;;5055304;28;20278;-62
2022/12/29 03:16:57;;;;;;;;;;;9.40;99.90;;;;;;5054999;28;19967;-62
2022/12/29 03:19:22;;;;;;;;;;;9.30;99.90;;;;;;5059611;28;20387;-62
2022/12/29 03:24:47;;;;;;;;;;;9.30;99.90;;;;;;5055700;28;19920;-62
2022/12/29 03:27:16;;;;;;;;;;;9.40;99.90;;;;;;5074796;28;19920;-62
2022/12/29 03:29:44;;;;;;;;;;;9.30;99.90;;;;;;5074820;28;20296;-62
2022/12/29 03:32:12;;;;;;;;;;;9.30;99.90;;;;;;5056647;28;20026;-62
2022/12/29 03:34:38;;;;;;;;;;;9.30;99.90;;;;;;5074566;28;19928;-62
2022/12/29 03:37:09;;;;;;;;;;;9.40;99.90;;;;;;5074533;28;20377;-62
2022/12/29 03:39:35;;;;;;;;;;;9.40;99.90;;;;;;5074418;28;19920;-62
2022/12/29 03:42:02;;;;;;;;;;;9.40;99.90;;;;;;5074758;28;19913;-62
2022/12/29 03:44:46;;;;;;;;;;;9.50;99.90;;;;;;5074595;28;19913;-62
2022/12/29 03:47:12;;;;;;;;;;;9.40;99.90;;;;;;5074785;28;20368;-62
2022/12/29 03:49:38;;;;;;;;;;;9.20;99.90;;;;;;5074012;28;20043;-62
2022/12/29 03:52:04;;;;;;;;;;;9.20;99.90;;;;;;5074164;28;20416;-62
2022/12/29 03:54:30;;;;;;;;;;;9.20;99.90;;;;;;5074836;28;20262;-62
2022/12/29 03:56:55;;;;;;;;;;;9.20;99.90;;;;;;5074512;28;20296;-62
2022/12/29 03:59:21;;;;;;;;;;;9.30;99.90;;;;;;5073421;28;19916;-62
2022/12/29 04:01:46;;;;;;;;;;;9.30;99.90;;;;;;5074158;28;19920;-62
2022/12/29 04:04:12;;;;;;;;;;;9.40;99.90;;;;;;5056345;28;19916;-62
2022/12/29 04:06:38;;;;;;;;;;;9.40;99.90;;;;;;5074259;28;20011;-62
2022/12/29 04:09:03;;;;;;;;;;;9.30;99.90;;;;;;5074197;28;19913;-62
2022/12/29 04:11:29;;;;;;;;;;;9.30;99.90;;;;;;5056019;28;20011;-62
2022/12/29 04:13:54;;;;;;;;;;;9.20;99.90;;;;;;5074413;28;20373;-62
2022/12/29 04:16:20;;;;;;;;;;;9.30;99.90;;;;;;5072798;28;19938;-62
2022/12/29 04:18:45;;;;;;;;;;;9.40;99.90;;;;;;5066225;28;19920;-62
2022/12/29 04:21:11;;;;;;;;;;;9.40;99.90;;;;;;5074180;28;19935;-62
2022/12/29 04:23:37;;;;;;;;;;;9.40;99.90;;;;;;5060048;28;19909;-62
2022/12/29 04:26:03;;;;;;;;;;;9.40;99.90;;;;;;5073623;28;19912;-62
2022/12/29 04:28:29;;;;;;;;;;;9.50;99.90;;;;;;5055896;28;19916;-62
2022/12/29 04:30:55;;;;;;;;;;;9.40;99.90;;;;;;5073679;28;20030;-62
2022/12/29 04:33:21;;;;;;;;;;;9.50;99.90;;;;;;5073758;28;19958;-62
2022/12/29 04:35:46;;;;;;;;;;;9.50;99.90;;;;;;5074211;28;20297;-62
2022/12/29 04:38:12;;;;;;;;;;;9.50;99.90;;;;;;5073725;28;19920;-62
2022/12/29 04:40:39;;;;;;;;;;;9.50;99.90;;;;;;5072980;28;20330;-62
2022/12/29 04:43:05;;;;;;;;;;;9.50;99.90;;;;;;5074136;28;19952;-62
2022/12/29 04:45:30;;;;;;;;;;;9.60;99.90;;;;;;5055567;28;19958;-62
2022/12/29 04:47:56;;;;;;;;;;;9.60;99.90;;;;;;5073403;28;20011;-62
2022/12/29 04:50:21;;;;;;;;;;;9.60;99.90;;;;;;5073149;28;19924;-62
2022/12/29 04:52:47;;;;;;;;;;;9.60;99.90;;;;;;5072588;28;19920;-62
2022/12/29 04:55:13;;;;;;;;;;;9.50;99.90;;;;;;5073519;28;19909;-61
2022/12/29 04:57:38;;;;;;;;;;;9.50;99.90;;;;;;5055551;28;19908;-62
2022/12/29 05:00:05;;;;;;;;;;;9.50;99.90;;;;;;5072122;28;20050;-62
2022/12/29 05:02:30;;;;;;;;;;;9.50;99.90;;;;;;5064254;28;19961;-61
2022/12/29 05:04:56;;;;;;;;;;;9.50;99.90;;;;;;5052398;28;19988;-62
2022/12/29 05:07:21;;;;;;;;;;;9.50;99.90;;;;;;5052618;28;19909;-61
2022/12/29 05:09:47;;;;;;;;;;;9.30;99.90;;;;;;5051954;28;19912;-61
2022/12/29 05:12:13;;;;;;;;;;;9.50;99.90;;;;;;5051293;28;19909;-61
2022/12/29 05:14:38;;;;;;;;;;;9.50;99.90;;;;;;5053380;28;19999;-62
2022/12/29 05:17:04;;;;;;;;;;;9.60;99.90;;;;;;5053135;28;19917;-61
2022/12/29 05:19:29;;;;;;;;;;;9.60;99.90;;;;;;5052876;28;19913;-62
2022/12/29 05:21:55;;;;;;;;;;;9.60;99.90;;;;;;5053127;28;19909;-62
2022/12/29 05:24:20;;;;;;;;;;;9.50;99.90;;;;;;5051839;28;19931;-61
2022/12/29 05:26:46;;;;;;;;;;;9.50;99.90;;;;;;5035152;28;19909;-61
2022/12/29 05:29:11;;;;;;;;;;;9.50;99.90;;;;;;5052653;28;19916;-61
2022/12/29 05:31:37;;;;;;;;;;;9.50;99.90;;;;;;5053138;28;19915;-61
2022/12/29 05:34:03;;;;;;;;;;;9.50;99.90;;;;;;5052800;28;20391;-61
2022/12/29 05:36:28;;;;;;;;;;;9.50;99.90;;;;;;5052903;28;19916;-61
2022/12/29 05:38:54;;;;;;;;;;;9.50;99.90;;;;;;5052550;28;19909;-60
2022/12/29 05:41:20;;;;;;;;;;;9.40;99.90;;;;;;5052819;28;19916;-61
2022/12/29 05:43:45;;;;;;;;;;;9.40;99.90;;;;;;5052624;28;20007;-61
2022/12/29 05:46:11;;;;;;;;;;;9.50;99.90;;;;;;5052559;28;19913;-62
2022/12/29 05:48:36;;;;;;;;;;;9.50;99.90;;;;;;5052369;28;19970;-62
2022/12/29 05:51:02;;;;;;;;;;;9.40;99.90;;;;;;5052714;28;20377;-62
2022/12/29 05:53:27;;;;;;;;;;;9.40;99.90;;;;;;5052462;28;19909;-61
2022/12/29 05:55:53;;;;;;;;;;;9.40;99.90;;;;;;5052525;28;19915;-61
2022/12/29 05:58:18;;;;;;;;;;;9.40;99.90;;;;;;5052000;28;20016;-61
2022/12/29 06:00:44;;;;;;;;;;;9.40;99.90;;;;;;5052440;28;19909;-61
2022/12/29 06:03:10;;;;;;;;;;;9.40;99.90;;;;;;5052245;28;19952;-61
2022/12/29 06:05:35;;;;;;;;;;;9.40;99.90;;;;;;5052329;28;19967;-61
2022/12/29 06:08:01;;;;;;;;;;;9.60;99.90;;;;;;5050871;28;19913;-61
2022/12/29 06:10:27;;;;;;;;;;;9.60;99.90;;;;;;5051986;28;19913;-62
2022/12/29 06:12:52;;;;;;;;;;;9.60;99.90;;;;;;5052736;28;19924;-61
2022/12/29 06:15:18;;;;;;;;;;;9.60;99.90;;;;;;5052158;28;20518;-62
2022/12/29 06:17:44;;;;;;;;;;;9.60;99.90;;;;;;5052092;28;19916;-62
2022/12/29 06:20:10;;;;;;;;;;;9.60;99.90;;;;;;5051822;28;20360;-60
2022/12/29 06:22:35;;;;;;;;;;;9.50;99.90;;;;;;5051809;28;20313;-61
2022/12/29 06:25:01;;;;;;;;;;;9.40;99.90;;;;;;5052064;28;19916;-62
2022/12/29 06:27:27;;;;;;;;;;;9.40;99.90;;;;;;5052107;28;19936;-61
2022/12/29 06:29:53;;;;;;;;;;;9.40;99.90;;;;;;5051614;28;19920;-62
2022/12/29 06:32:18;;;;;;;;;;;9.40;99.90;;;;;;5052105;28;20400;-60
2022/12/29 06:34:44;;;;;;;;;;;9.30;99.90;;;;;;5051965;28;19909;-62
2022/12/29 06:37:10;;;;;;;;;;;9.40;99.90;;;;;;5051938;28;19913;-61
2022/12/29 06:39:35;;;;;;;;;;;9.50;99.90;;;;;;5051969;28;20000;-63
2022/12/29 06:42:01;;;;;;;;;;;9.60;99.90;;;;;;5052045;28;19908;-61
2022/12/29 06:44:27;;;;;;;;;;;9.50;99.90;;;;;;5033947;28;19909;-60
2022/12/29 06:46:52;;;;;;;;;;;9.60;99.90;;;;;;5052063;28;20344;-62
2022/12/29 06:49:18;;;;;;;;;;;9.60;99.90;;;;;;5051519;28;19913;-61
2022/12/29 06:51:43;;;;;;;;;;;9.60;99.90;;;;;;5051840;28;19909;-53
2022/12/29 06:54:09;;;;;;;;;;;9.60;99.90;;;;;;5051804;28;20284;-55
2022/12/29 06:56:35;;;;;;;;;;;9.60;99.90;;;;;;5051802;28;19963;-51
2022/12/29 06:59:00;;;;;;;;;;;9.50;99.90;;;;;;5051572;28;19924;-57
2022/12/29 07:01:26;;;;;;;;;;;9.50;99.90;;;;;;5051985;28;20003;-52
2022/12/29 07:03:52;;;;;;;;;;;9.40;99.90;;;;;;5051597;28;19913;-58
2022/12/29 07:06:18;;;;;;;;;;;9.50;99.90;;;;;;5051811;28;19916;-53
2022/12/29 07:08:43;;;;;;;;;;;9.40;99.90;;;;;;5051296;28;19909;-51
2022/12/29 07:11:09;;;;;;;;;;;9.40;99.90;;;;;;5051655;28;20014;-54
2022/12/29 07:13:34;;;;;;;;;;;9.30;99.90;;;;;;5052185;28;19947;-51
2022/12/29 07:16:04;;;;;;;;;;;9.40;99.90;;;;;;5051575;28;19913;-51
2022/12/29 07:18:30;;;;;;;;;;;9.40;99.90;;;;;;5051392;28;19948;-54
2022/12/29 07:20:55;;;;;;;;;;;9.40;99.90;;;;;;5051724;28;20377;-55
2022/12/29 07:23:21;;;;;;;;;;;9.40;99.90;;;;;;5051567;28;19909;-60
2022/12/29 07:25:47;;;;;;;;;;;9.40;99.90;;;;;;5051574;28;19916;-60
2022/12/29 07:28:12;;;;;;;;;;;9.60;99.90;;;;;;5051148;28;20335;-62
2022/12/29 07:30:38;;;;;;;;;;;9.60;99.90;;;;;;5051402;28;19931;-63
2022/12/29 07:33:04;;;;;;;;;;;9.60;99.90;;;;;;5051400;28;19913;-62
2022/12/29 07:35:29;;;;;;;;;;;9.70;99.90;;;;;;5053235;28;20492;-61
2022/12/29 07:37:55;;;;;;;;;;;9.70;99.90;;;;;;5055001;28;19909;-61
2022/12/29 07:40:20;;;;;;;;;;;9.60;99.90;;;;;;5054858;28;19916;-62
2022/12/29 07:42:46;;;;;;;;;;;9.70;99.90;;;;;;5055048;28;20262;-61
2022/12/29 07:45:11;;;;;;;;;;;9.60;99.90;;;;;;5054849;28;20011;-61
2022/12/29 07:47:37;;;;;;;;;;;9.50;99.90;;;;;;5053688;28;19915;-57
2022/12/29 07:50:03;;;;;;;;;;;10.10;99.90;;;;;;5054676;28;19913;-58
2022/12/29 07:52:29;;;;;;;;;;;9.50;99.90;;;;;;5054789;28;19962;-62
2022/12/29 07:54:54;;;;;;;;;;;9.40;99.90;;;;;;5054808;28;20003;-62
2022/12/29 07:57:20;;;;;;;;;;;9.50;99.90;;;;;;5054627;28;19913;-61
2022/12/29 07:59:45;;;;;;;;;;;9.60;99.90;;;;;;5036493;28;19917;-60
2022/12/29 08:02:11;;;;;;;;;;;9.50;99.90;;;;;;5054777;28;19909;-62
2022/12/29 08:04:37;;;;;;;;;;;9.50;99.90;;;;;;5054690;28;19916;-62
2022/12/29 08:07:02;;;;;;;;;;;9.60;99.90;;;;;;5054570;28;19909;-62
2022/12/29 08:09:28;;;;;;;;;;;9.60;99.90;;;;;;5054164;28;19935;-61
2022/12/29 08:11:54;;;;;;;;;;;9.60;99.90;;;;;;5054444;28;19909;-62
2022/12/29 08:14:20;;;;;;;;;;;9.70;99.90;;;;;;5054695;28;20350;-62
2022/12/29 08:16:46;;;;;;;;;;;9.70;99.90;;;;;;5054626;28;19909;-61
2022/12/29 08:19:12;;;;;;;;;;;9.80;99.90;;;;;;5054109;28;20377;-62
2022/12/29 08:21:37;;;;;;;;;;;9.80;99.90;;;;;;5054243;28;19916;-62
2022/12/29 08:24:03;;;;;;;;;;;9.80;99.90;;;;;;5054253;28;19923;-63
2022/12/29 08:26:28;;;;;;;;;;;9.80;99.90;;;;;;5054123;28;19909;-60
2022/12/29 08:28:55;;;;;;;;;;;9.80;99.90;;;;;;5053978;28;20009;-60
2022/12/29 08:31:21;;;;;;;;;;;9.90;99.90;;;;;;5054188;28;19975;-61
2022/12/29 08:33:46;;;;;;;;;;;9.90;99.90;;;;;;5054023;28;19955;-61
2022/12/29 08:36:12;;;;;;;;;;;10.00;99.90;;;;;;5052597;28;19966;-61
2022/12/29 08:38:38;;;;;;;;;;;10.00;99.90;;;;;;5053727;28;19909;-60
2022/12/29 08:41:03;;;;;;;;;;;10.00;99.90;;;;;;5053789;28;19931;-60
2022/12/29 08:43:29;;;;;;;;;;;10.00;99.90;;;;;;5053708;28;19920;-61
2022/12/29 08:45:56;;;;;;;;;;;10.00;99.90;;;;;;5053709;28;19999;-59
2022/12/29 08:48:22;;;;;;;;;;;9.90;99.90;;;;;;5053696;28;19909;-63
2022/12/29 08:50:48;;;;;;;;;;;9.90;99.90;;;;;;5053624;28;20270;-62
2022/12/29 08:53:13;;;;;;;;;;;9.90;99.90;;;;;;5053628;28;19909;-62
2022/12/29 08:55:39;;;;;;;;;;;9.90;99.90;;;;;;5053640;28;20024;-61
2022/12/29 08:58:05;;;;;;;;;;;9.90;99.90;;;;;;5053536;28;19935;-61
2022/12/29 09:00:31;;;;;;;;;;;9.80;99.90;;;;;;5053566;28;20373;-62
2022/12/29 09:02:56;;;;;;;;;;;9.90;99.90;;;;;;5053573;28;19916;-62
2022/12/29 09:05:22;;;;;;;;;;;9.90;99.90;;;;;;5053476;28;20340;-58
2022/12/29 09:07:49;;;;;;;;;;;9.90;99.90;;;;;;5053514;28;19908;-60
2022/12/29 09:10:15;;;;;;;;;;;10.00;99.90;;;;;;5053091;28;19959;-56
2022/12/29 09:12:40;;;;;;;;;;;10.00;99.90;;;;;;5051985;28;19913;-60
2022/12/29 09:15:06;;;;;;;;;;;10.00;99.90;;;;;;5053235;28;19909;-59
2022/12/29 09:17:45;;;;;;;;;;;10.10;99.90;;;;;;5053303;28;19909;-61
2022/12/29 09:20:15;;;;;;;;;;;10.10;99.90;;;;;;5052818;28;19912;-60
2022/12/29 09:22:41;;;;;;;;;;;10.10;99.90;;;;;;5053120;28;19912;-61
2022/12/29 09:25:07;;;;;;;;;;;10.10;99.90;;;;;;5053055;28;20380;-61
2022/12/29 09:27:32;;;;;;;;;;;10.00;99.90;;;;;;5035485;28;19909;-62
2022/12/29 09:29:58;;;;;;;;;;;10.00;99.90;;;;;;5052727;28;20365;-61
2022/12/29 09:32:24;;;;;;;;;;;10.00;99.90;;;;;;5053001;28;20323;-60
2022/12/29 09:34:49;;;;;;;;;;;10.00;99.90;;;;;;5052950;28;19909;-61
2022/12/29 09:37:15;;;;;;;;;;;10.00;99.90;;;;;;5052854;28;19909;-61
2022/12/29 09:39:40;;;;;;;;;;;10.00;99.90;;;;;;5052576;28;20011;-61
2022/12/29 09:42:06;;;;;;;;;;;10.00;99.90;;;;;;5052790;28;19909;-62
2022/12/29 09:44:31;;;;;;;;;;;10.10;99.90;;;;;;5052755;28;19916;-61
2022/12/29 09:46:57;;;;;;;;;;;10.20;99.90;;;;;;5052684;28;19916;-61
2022/12/29 09:49:35;;;;;;;;;;;9.90;99.90;;;;;;5052481;28;19913;-61
2022/12/29 09:52:04;;;;;;;;;;;10.30;99.90;;;;;;5052653;28;20441;-61
2022/12/29 09:54:36;;;;;;;;;;;10.30;99.90;;;;;;5052547;28;19909;-61
2022/12/29 09:57:02;;;;;;;;;;;10.30;99.90;;;;;;5052378;28;20289;-59
2022/12/29 09:59:36;;;;;;;;;;;10.30;99.90;;;;;;5051849;28;19916;-61
2022/12/29 10:02:15;;;;;;;;;;;10.40;99.90;;;;;;5034643;28;19909;-59
2022/12/29 10:04:41;;;;;;;;;;;10.40;99.90;;;;;;5034481;28;19912;-60
2022/12/29 10:07:13;;;;;;;;;;;10.30;99.90;;;;;;5052362;28;19909;-61
2022/12/29 10:10:05;;;;;;;;;;;10.10;99.90;;;;;;5052013;28;19913;-61
2022/12/29 10:12:51;;;;;;;;;;;10.20;99.90;;;;;;5036263;28;20335;-59
2022/12/29 10:15:35;;;;;;;;;;;10.30;99.90;;;;;;5052599;28;19912;-61
2022/12/29 10:18:00;;;;;;;;;;;10.50;99.90;;;;;;5052199;28;19912;-60
2022/12/29 10:20:26;;;;;;;;;;;10.50;99.90;;;;;;5052121;28;20283;-59
2022/12/29 10:23:00;;;;;;;;;;;10.60;99.90;;;;;;5052087;28;20365;-60
2022/12/29 10:25:29;;;;;;;;;;;10.60;99.90;;;;;;5052079;28;19909;-60
2022/12/29 10:27:56;;;;;;;;;;;12.50;99.90;;;;;;5051916;28;20408;-59
2022/12/29 10:30:22;;;;;;;;;;;10.60;99.90;;;;;;5051900;28;19964;-60
2022/12/29 10:32:50;;;;;;;;;;;10.70;99.90;;;;;;5052080;28;19952;-61
2022/12/29 10:35:20;;;;;;;;;;;10.70;99.90;;;;;;5052037;28;20007;-59
2022/12/29 10:37:51;;;;;;;;;;;10.50;99.90;;;;;;5052033;28;19916;-60
2022/12/29 10:40:17;;;;;;;;;;;9.60;99.90;;;;;;5052000;28;19967;-60
2022/12/29 10:42:45;;;;;;;;;;;10.40;99.90;;;;;;5052029;28;20297;-60
2022/12/29 10:45:15;;;;;;;;;;;10.40;99.90;;;;;;5034088;28;19916;-61
2022/12/29 10:47:52;;;;;;;;;;;10.30;99.90;;;;;;5051990;28;19913;-59
2022/12/29 10:50:19;;;;;;;;;;;10.60;99.90;;;;;;5051717;28;19913;-60
2022/12/29 10:52:44;;;;;;;;;;;10.50;99.90;;;;;;5052020;28;19909;-60
2022/12/29 10:55:15;;;;;;;;;;;10.50;99.90;;;;;;5051901;28;20314;-60
2022/12/29 10:57:44;;;;;;;;;;;10.40;99.90;;;;;;5051912;28;20357;-59
2022/12/29 11:00:20;;;;;;;;;;;10.70;99.90;;;;;;5033644;28;20373;-60
2022/12/29 11:03:06;;;;;;;;;;;10.70;99.90;;;;;;5033803;28;19944;-61
2022/12/29 11:05:50;;;;;;;;;;;10.70;99.90;;;;;;5051690;28;20000;-59
2022/12/29 11:08:17;;;;;;;;;;;10.70;99.90;;;;;;5068667;28;20012;-58
2022/12/29 11:10:44;;;;;;;;;;;11.00;99.90;;;;;;5073310;28;19924;-61
2022/12/29 11:13:24;;;;;;;;;;;11.10;99.90;;;;;;5074380;28;20026;-59
2022/12/29 11:15:50;;;;;;;;;;;11.20;99.90;;;;;;5063970;28;19990;-61
2022/12/29 11:18:36;;;;;;;;;;;11.20;99.90;;;;;;5074574;28;20385;-59
2022/12/29 11:21:04;;;;;;;;;;;11.10;99.90;;;;;;5072843;28;19912;-64
2022/12/29 11:23:31;;;;;;;;;;;11.10;99.90;;;;;;5075111;28;20015;-63
2022/12/29 11:26:14;;;;;;;;;;;11.00;99.90;;;;;;5057039;28;19936;-61
2022/12/29 11:28:40;;;;;;;;;;;11.10;99.90;;;;;;5075164;28;19908;-63
2022/12/29 11:31:07;;;;;;;;;;;11.00;99.70;;;;;;5074279;28;19990;-64
2022/12/29 11:33:34;;;;;;;;;;;10.90;99.80;;;;;;5073900;28;19913;-63
2022/12/29 11:36:02;;;;;;;;;;;10.80;99.90;;;;;;5075028;28;20022;-63
2022/12/29 11:38:34;;;;;;;;;;;10.70;99.90;;;;;;5073358;28;20011;-63
2022/12/29 11:41:00;;;;;;;;;;;10.60;99.90;;;;;;5056018;28;19942;-62
2022/12/29 11:43:39;;;;;;;;;;;10.60;99.90;;;;;;5073876;28;19917;-63
2022/12/29 11:46:05;;;;;;;;;;;10.60;99.90;;;;;;5072830;28;20049;-64
2022/12/29 11:48:39;;;;;;;;;;;10.50;99.90;;;;;;5056087;28;19924;-62
2022/12/29 11:51:05;;;;;;;;;;;10.50;99.90;;;;;;5056476;28;20015;-63
2022/12/29 11:53:45;;;;;;;;;;;10.60;99.90;;;;;;5074852;28;19912;-63
2022/12/29 11:56:14;;;;;;;;;;;10.60;99.90;;;;;;5074744;28;20277;-63
2022/12/29 11:58:39;;;;;;;;;;;10.80;99.90;;;;;;5074133;28;20015;-62
2022/12/29 12:01:11;;;;;;;;;;;10.80;99.90;;;;;;5073594;28;19986;-64
2022/12/29 12:03:40;;;;;;;;;;;10.90;99.90;;;;;;5070798;28;19916;-63
2022/12/29 12:06:09;;;;;;;;;;;10.80;99.90;;;;;;5074144;28;19948;-62
2022/12/29 12:08:46;;;;;;;;;;;10.80;99.90;;;;;;5074019;28;19977;-62
2022/12/29 12:11:12;;;;;;;;;;;10.80;99.90;;;;;;5074266;28;19916;-62
2022/12/29 12:13:50;;;;;;;;;;;10.80;99.90;;;;;;5074453;28;20296;-63
2022/12/29 12:16:16;;;;;;;;;;;10.70;99.90;;;;;;5074000;28;19913;-63
2022/12/29 12:18:48;;;;;;;;;;;10.60;99.90;;;;;;5073069;28;20007;-63
2022/12/29 12:21:17;;;;;;;;;;;10.60;99.90;;;;;;5073295;28;19969;-64
2022/12/29 12:23:57;;;;;;;;;;;10.60;99.90;;;;;;5067094;28;19913;-63
2022/12/29 12:26:32;;;;;;;;;;;10.70;99.90;;;;;;5055996;28;19919;-64
2022/12/29 12:29:00;;;;;;;;;;;10.60;99.90;;;;;;5053851;28;20385;-64
2022/12/29 12:31:35;;;;;;;;;;;10.60;99.90;;;;;;5068717;28;20315;-63
2022/12/29 12:34:02;;;;;;;;;;;10.50;99.90;;;;;;5059412;28;19971;-63
2022/12/29 12:36:47;;;;;;;;;;;10.60;99.90;;;;;;5073746;28;19912;-63
2022/12/29 12:39:13;;;;;;;;;;;10.60;99.90;;;;;;5073484;28;19909;-64
2022/12/29 12:41:38;;;;;;;;;;;10.60;99.90;;;;;;5074071;28;19909;-64
2022/12/29 12:44:07;;;;;;;;;;;10.60;99.90;;;;;;5073466;28;19912;-63
2022/12/29 12:46:38;;;;;;;;;;;10.60;99.90;;;;;;5072132;28;19998;-64
2022/12/29 12:49:22;;;;;;;;;;;10.50;99.90;;;;;;5072893;28;19931;-64
2022/12/29 12:51:51;;;;;;;;;;;10.40;99.90;;;;;;5053786;28;19920;-65
2022/12/29 12:54:31;;;;;;;;;;;10.50;99.90;;;;;;5054023;28;19909;-63
2022/12/29 12:57:09;;;;;;;;;;;10.50;99.90;;;;;;5061794;28;20381;-63
2022/12/29 12:59:40;;;;;;;;;;;10.60;99.90;;;;;;5055009;28;19924;-63
2022/12/29 13:02:18;;;;;;;;;;;10.60;99.90;;;;;;5072914;28;19920;-56
2022/12/29 13:04:43;;;;;;;;;;;10.60;99.90;;;;;;5072154;28;19913;-63
2022/12/29 13:07:09;;;;;;;;;;;10.70;99.90;;;;;;5073278;28;20011;-63
2022/12/29 13:09:37;;;;;;;;;;;10.80;99.90;;;;;;5072810;28;19951;-64
2022/12/29 13:12:21;;;;;;;;;;;10.80;99.90;;;;;;5073012;28;19919;-63
2022/12/29 13:14:59;;;;;;;;;;;10.80;99.90;;;;;;5072979;28;19935;-63
2022/12/29 13:17:29;;;;;;;;;;;10.90;99.90;;;;;;5072800;28;19965;-64
2022/12/29 13:19:54;;;;;;;;;;;10.90;99.90;;;;;;5072648;28;20468;-64
2022/12/29 13:22:23;;;;;;;;;;;10.90;99.90;;;;;;5072766;28;19956;-63
2022/12/29 13:25:07;;;;;;;;;;;10.80;99.90;;;;;;5072563;28;19919;-64
2022/12/29 13:27:41;;;;;;;;;;;10.90;99.90;;;;;;5072826;28;19948;-65
2022/12/29 13:30:12;;;;;;;;;;;10.90;99.90;;;;;;5072691;28;20289;-64
2022/12/29 13:32:56;;;;;;;;;;;10.90;99.90;;;;;;5071796;28;19947;-64
2022/12/29 13:35:28;;;;;;;;;;;10.90;99.90;;;;;;5072809;28;19912;-63
2022/12/29 13:37:55;;;;;;;;;;;10.90;99.90;;;;;;5072577;28;19912;-64
2022/12/29 13:40:24;;;;;;;;;;;10.80;99.90;;;;;;5072655;28;19919;-64
2022/12/29 13:42:50;;;;;;;;;;;10.80;99.90;;;;;;5072513;28;20385;-64
2022/12/29 13:45:18;;;;;;;;;;;10.80;99.90;;;;;;5072286;28;20323;-64
2022/12/29 13:47:49;;;;;;;;;;;10.80;99.90;;;;;;5071524;28;19913;-63
2022/12/29 13:50:19;;;;;;;;;;;10.90;99.90;;;;;;5054248;28;20332;-64
2022/12/29 13:53:03;;;;;;;;;;;10.80;99.90;;;;;;5072386;28;19962;-66
2022/12/29 13:55:34;;;;;;;;;;;10.80;99.90;;;;;;5072047;28;19913;-66
2022/12/29 13:58:04;;;;;;;;;;;10.80;99.90;;;;;;5071823;28;20439;-64
2022/12/29 14:00:35;;;;;;;;;;;10.80;99.90;;;;;;5072073;28;19916;-65
2022/12/29 14:03:12;;;;;;;;;;;10.80;99.90;;;;;;5051032;28;19913;-65
2022/12/29 14:05:38;;;;;;;;;;;10.80;99.90;;;;;;5066225;28;19912;-64
2022/12/29 14:08:13;;;;;;;;;;;10.70;99.90;;;;;;5072463;28;19908;-64
2022/12/29 14:10:49;;;;;;;;;;;10.70;99.90;;;;;;5071929;28;20335;-64
2022/12/29 14:13:20;;;;;;;;;;;10.70;99.90;;;;;;5072211;28;19908;-66
2022/12/29 14:15:50;;;;;;;;;;;10.70;99.90;;;;;;5072072;28;19919;-64
2022/12/29 14:18:19;;;;;;;;;;;10.80;99.90;;;;;;5071739;28;19919;-64
2022/12/29 14:20:51;;;;;;;;;;;10.80;99.90;;;;;;5071211;28;19912;-65
2022/12/29 14:23:26;;;;;;;;;;;10.80;99.90;;;;;;5053331;28;19963;-63
2022/12/29 14:25:52;;;;;;;;;;;10.80;99.90;;;;;;5071591;28;20404;-64
2022/12/29 14:28:23;;;;;;;;;;;10.70;99.90;;;;;;5071729;28;19952;-65
2022/12/29 14:30:52;;;;;;;;;;;10.70;99.90;;;;;;5071714;28;19923;-64
2022/12/29 14:33:19;;;;;;;;;;;10.70;99.90;;;;;;5053603;28;19912;-63
2022/12/29 14:35:49;;;;;;;;;;;10.70;99.90;;;;;;5071827;28;19912;-64
2022/12/29 14:38:22;;;;;;;;;;;10.50;99.90;;;;;;5067205;28;19948;-64
2022/12/29 14:40:48;;;;;;;;;;;10.70;99.90;;;;;;5052992;28;19913;-64
2022/12/29 14:43:19;;;;;;;;;;;10.60;99.90;;;;;;5064830;28;19915;-63
2022/12/29 14:45:51;;;;;;;;;;;10.60;99.90;;;;;;5057837;28;19912;-63
2022/12/29 14:48:40;;;;;;;;;;;10.60;99.90;;;;;;5055930;28;20361;-63
2022/12/29 14:51:20;;;;;;;;;;;10.50;99.90;;;;;;5050385;28;19955;-62
2022/12/29 14:53:47;;;;;;;;;;;10.60;99.90;;;;;;5061467;28;20319;-64
2022/12/29 14:56:14;;;;;;;;;;;10.60;99.90;;;;;;5057807;28;19909;-64
2022/12/29 14:58:46;;;;;;;;;;;10.50;99.90;;;;;;5057188;28;19924;-64
2022/12/29 15:01:23;;;;;;;;;;;10.50;99.90;;;;;;5075665;28;20193;-63
2022/12/29 15:03:51;;;;;;;;;;;10.50;99.90;;;;;;5075679;28;19919;-63
2022/12/29 15:06:21;;;;;;;;;;;10.50;99.90;;;;;;5075683;28;19920;-63
2022/12/29 15:08:47;;;;;;;;;;;10.50;99.90;;;;;;5074955;28;19914;-65
2022/12/29 15:11:12;;;;;;;;;;;10.50;99.90;;;;;;5048966;28;20296;-71